Accueil
METAR-TAF:

METAR-TAF

Aéroports :

Berne, Suisse

Aéroport international de Berne

latitude: 46-55N, longitude: 007-30E, altitude: 505 m

Observation

Le bulletin a été fait il y a 11 minutes, à 17:20 UTC
Vent 7 kt de nord-ouest, variant entre ouest et nord/nord-ouest
Température 26°C
Humidité 42%
Pression 1016 hPa
Visibilité 10 km ou plus
Quelques nuages à une hauteur de 6000 ft

METAR: LSZB 251720Z 31007KT 270V330 9999 FEW060 26/12 Q1016 NOSIG

Heure: 19:31 (17:31 UTC)


TAF: absent

Observations et prévisions météorologiques de plus de 4000 aéroports (messages METAR et TAF).

Les stations disponibles sont représentées par des disques jaunes et rouges sur la carte.

Passer la souris dessus pour voir le nom de la station.

Cliquer dessus pour voir les observations et prévisions météorologiques.

Pour changer de carte: cliquez sur les boutons verts avec une croix noire pour zoomer, sur le bouton vert avec un tiret pour effectuer un zoom arrière, ou sur les flèches vertes pour les cartes adjacentes.


METAR-TAF: